Time;durP1;ratioP1;P1;durP2;ratioP2;P2;SDS_P1;SDS_P2;PMS_P1;PMS_P2;Temp;Humidity;BMP_temperature;BMP_pressure;BME280_temperature;BME280_humidity;BME280_pressure;Samples;Min_cycle;Max_cycle;Signal;HPM_P1;HPM_P2
2022/02/09 00:05:21;;;;;;;16.50;5.90;;;;;;;6.89;91.88;101047.91;105438;1277;22563;-64
2022/02/09 00:07:59;;;;;;;16.50;4.90;;;;;;;6.90;92.09;101051.86;105561;1277;22738;-63
2022/02/09 00:10:30;;;;;;;15.20;5.10;;;;;;;6.89;92.07;101050.23;105468;1277;22573;-63
2022/02/09 00:13:20;;;;;;;15.00;5.20;;;;;;;6.90;92.25;101055.85;105503;1277;25205;-63
2022/02/09 00:15:56;;;;;;;16.80;5.60;;;;;;;6.89;92.28;101054.91;105423;1278;22575;-63
2022/02/09 00:18:28;;;;;;;17.40;6.40;;;;;;;6.88;92.23;101054.52;105587;1278;25365;-63
2022/02/09 00:24:06;;;;;;;20.20;7.50;;;;;;;6.90;92.21;101063.69;104752;1283;22561;-63
2022/02/09 00:29:46;;;;;;;14.50;4.20;;;;;;;6.90;92.49;101065.02;104960;1282;22584;-63
2022/02/09 00:32:36;;;;;;;17.00;4.20;;;;;;;6.92;92.53;101067.98;104790;1284;22575;-63
2022/02/09 00:38:20;;;;;;;11.50;3.90;;;;;;;6.93;92.49;101071.70;105348;1282;22596;-64
2022/02/09 00:44:10;;;;;;;13.10;3.60;;;;;;;6.94;92.62;101074.52;104691;1284;22594;-63
2022/02/09 01:39:52;;;;;;;10.30;3.00;;;;;;;7.01;92.82;101096.25;104914;1284;25240;-65
2022/02/09 01:51:13;;;;;;;12.20;3.60;;;;;;;7.05;92.83;101110.50;105303;1278;24023;-63
2022/02/09 01:56:30;;;;;;;8.80;2.90;;;;;;;7.08;92.79;101108.29;105016;1284;24210;-63
2022/02/09 01:58:59;;;;;;;;;;;;;;;7.09;92.84;101111.43;105460;1276;23059;-63
2022/02/09 02:01:29;;;;;;;10.10;3.20;;;;;;;7.09;92.74;101118.56;105521;1277;26584;-63
2022/02/09 02:03:57;;;;;;;8.90;3.00;;;;;;;7.10;92.78;101115.69;105668;1277;24579;-64
2022/02/09 02:06:26;;;;;;;12.50;4.20;;;;;;;7.10;92.86;101112.03;105683;1277;22767;-63
2022/02/09 02:08:54;;;;;;;9.30;3.20;;;;;;;7.10;92.99;101109.19;105522;1277;24038;-63
2022/02/09 02:11:27;;;;;;;10.20;3.20;;;;;;;7.10;92.94;101104.50;105692;1277;22873;-63
2022/02/09 02:14:13;;;;;;;10.80;3.10;;;;;;;7.11;92.90;101094.34;105501;1276;25335;-64
2022/02/09 02:16:44;;;;;;;7.80;2.60;;;;;;;7.10;92.86;101097.12;105464;1277;24545;-63
2022/02/09 02:19:27;;;;;;;9.80;3.40;;;;;;;7.11;92.84;101106.86;105503;1277;24027;-64
2022/02/09 02:22:04;;;;;;;7.20;2.80;;;;;;;7.11;92.82;101097.82;105435;1277;22535;-65
2022/02/09 02:33:29;;;;;;;9.90;3.50;;;;;;;7.13;92.60;101104.03;104700;1287;24289;-63
2022/02/09 02:39:15;;;;;;;11.30;3.10;;;;;;;7.13;92.68;101100.53;104879;1284;22556;-63
2022/02/09 02:47:26;;;;;;;11.20;4.00;;;;;;;7.16;92.58;101087.70;104989;1284;25377;-64
2022/02/09 03:09:47;;;;;;;11.70;3.90;;;;;;;7.15;92.35;101084.05;105503;1279;27234;-63
2022/02/09 03:12:18;;;;;;;13.50;5.30;;;;;;;7.15;92.50;101074.06;105347;1279;22578;-64
2022/02/09 03:14:53;;;;;;;12.70;4.10;;;;;;;7.15;92.40;101074.14;105329;1279;23246;-64
2022/02/09 03:17:31;;;;;;;13.50;3.60;;;;;;;7.16;92.40;101079.67;105268;1279;22565;-63
2022/02/09 03:20:04;;;;;;;12.60;4.30;;;;;;;7.17;92.44;101083.55;105372;1279;22826;-63
2022/02/09 03:22:49;;;;;;;10.30;4.40;;;;;;;7.17;92.34;101080.23;105502;1279;22944;-63
2022/02/09 03:25:43;;;;;;;13.20;4.20;;;;;;;7.17;92.22;101077.35;105333;1279;25536;-63
2022/02/09 03:31:27;;;;;;;10.60;3.10;;;;;;;7.17;92.34;101087.02;105325;1279;22559;-64
2022/02/09 03:42:31;;;;;;;12.10;3.90;;;;;;;7.16;92.21;101091.73;105812;1273;22553;-64
2022/02/09 03:48:11;;;;;;;12.40;3.10;;;;;;;7.17;92.32;101107.11;105677;1274;22752;-64
2022/02/09 03:50:54;;;;;;;9.50;3.20;;;;;;;7.18;92.26;101111.95;105580;1273;22631;-65
2022/02/09 03:53:34;;;;;;;12.10;2.90;;;;;;;7.18;92.19;101110.17;105637;1273;22795;-63
2022/02/09 03:56:24;;;;;;;11.60;3.30;;;;;;;7.17;92.23;101111.63;105621;1273;24019;-63
2022/02/09 03:58:55;;;;;;;13.80;3.70;;;;;;;7.18;92.20;101115.52;105642;1274;22545;-62
2022/02/09 04:01:28;;;;;;;11.90;3.70;;;;;;;7.17;92.36;101114.33;105693;1273;22582;-63
2022/02/09 04:03:56;;;;;;;9.50;3.40;;;;;;;7.16;92.38;101116.17;105624;1273;22702;-63
2022/02/09 04:06:25;;;;;;;9.90;3.20;;;;;;;7.15;92.46;101112.70;105828;1273;22546;-64
2022/02/09 04:08:58;;;;;;;12.50;3.30;;;;;;;7.15;92.52;101112.16;105592;1273;23159;-64
2022/02/09 04:11:31;;;;;;;14.00;3.20;;;;;;;7.14;92.48;101110.76;105573;1273;25417;-63
2022/02/09 04:14:07;;;;;;;8.00;2.60;;;;;;;7.13;92.67;101111.02;105607;1273;22573;-63
2022/02/09 04:16:47;;;;;;;11.20;2.60;;;;;;;7.13;92.62;101107.06;105775;1273;22576;-63
2022/02/09 04:19:26;;;;;;;12.30;3.00;;;;;;;7.12;92.66;101108.58;105611;1272;22552;-63
2022/02/09 04:36:15;;;;;;;10.70;3.40;;;;;;;7.04;93.21;101086.41;105949;1273;22558;-63
2022/02/09 04:38:51;;;;;;;9.20;3.10;;;;;;;7.03;93.30;101087.71;105708;1273;22566;-64
2022/02/09 04:47:18;;;;;;;8.80;2.60;;;;;;;6.99;93.47;101087.73;105733;1273;24234;-63
2022/02/09 04:50:05;;;;;;;9.80;3.10;;;;;;;6.98;93.63;101087.52;105889;1273;22572;-63
2022/02/09 04:52:53;;;;;;;10.10;2.70;;;;;;;6.97;93.58;101086.74;106172;1273;22554;-64
2022/02/09 04:55:39;;;;;;;9.80;2.80;;;;;;;6.97;93.72;101088.89;105896;1273;22577;-64
2022/02/09 04:58:16;;;;;;;9.80;3.00;;;;;;;6.97;93.76;101092.77;105684;1273;22540;-63
2022/02/09 05:00:53;;;;;;;11.60;3.00;;;;;;;6.97;93.81;101091.20;105631;1273;25766;-64
2022/02/09 05:03:42;;;;;;;13.60;4.40;;;;;;;6.96;93.85;101095.02;105814;1273;24504;-64
2022/02/09 05:25:46;;;;;;;12.70;4.40;;;;;;;6.95;94.13;101095.19;105455;1276;25327;-63
2022/02/09 05:28:17;;;;;;;11.30;3.70;;;;;;;6.96;94.08;101095.26;105499;1276;22569;-63
2022/02/09 05:30:46;;;;;;;;;;;;;;;6.96;94.03;101096.13;105485;1277;22520;-63
2022/02/09 05:33:15;;;;;;;13.50;4.20;;;;;;;6.96;94.23;101099.30;105548;1277;22557;-63
2022/02/09 05:35:44;;;;;;;14.20;5.00;;;;;;;6.96;94.16;101096.20;105675;1276;22554;-64
2022/02/09 05:38:14;;;;;;;13.40;5.20;;;;;;;6.96;94.00;101099.77;105598;1276;22735;-63
2022/02/09 05:40:44;;;;;;;15.30;5.80;;;;;;;6.98;93.97;101097.91;106410;1264;22586;-64
2022/02/09 05:43:14;;;;;;;14.80;4.10;;;;;;;6.98;94.04;101102.20;105896;1271;22550;-60
2022/02/09 05:46:03;;;;;;;14.90;5.40;;;;;;;6.98;94.06;101101.88;105792;1271;22697;-63
2022/02/09 05:51:27;;;;;;;15.10;4.90;;;;;;;6.99;93.93;101106.54;105582;1273;22547;-63
2022/02/09 05:54:05;;;;;;;16.20;6.10;;;;;;;7.00;94.02;101106.44;105597;1274;22765;-62
2022/02/09 05:56:38;;;;;;;16.50;6.40;;;;;;;7.01;93.95;101105.54;105500;1273;24454;-61
2022/02/09 05:59:16;;;;;;;15.90;6.60;;;;;;;7.01;93.83;101106.48;105549;1273;23238;-62
2022/02/09 06:01:45;;;;;;;24.00;8.90;;;;;;;7.03;93.79;101110.33;105634;1273;22560;-62
2022/02/09 06:04:14;;;;;;;18.50;7.20;;;;;;;7.03;93.77;101112.52;105879;1273;22590;-62
2022/02/09 06:06:43;;;;;;;15.50;5.50;;;;;;;7.04;93.74;101113.52;105939;1273;26487;-65
2022/02/09 06:09:12;;;;;;;15.40;5.10;;;;;;;7.05;93.75;101111.54;105781;1271;22605;-62
2022/02/09 06:11:45;;;;;;;15.70;4.50;;;;;;;7.07;93.59;101113.64;105558;1273;22586;-63
2022/02/09 06:14:40;;;;;;;16.30;6.30;;;;;;;7.07;93.73;101115.60;105469;1273;26394;-62
2022/02/09 06:19:55;;;;;;;13.60;4.80;;;;;;;7.11;93.46;101128.77;105494;1273;22632;-63
2022/02/09 06:22:24;;;;;;;15.30;4.60;;;;;;;7.12;93.34;101130.08;105499;1273;22538;-62
2022/02/09 06:24:53;;;;;;;11.90;4.10;;;;;;;7.15;93.23;101135.73;105708;1273;22559;-63
2022/02/09 06:27:21;;;;;;;14.10;4.90;;;;;;;7.17;93.17;101132.67;105577;1273;22566;-63
2022/02/09 06:29:50;;;;;;;13.20;3.70;;;;;;;7.19;93.01;101127.44;106225;1273;22541;-61
2022/02/09 06:32:20;;;;;;;13.40;4.60;;;;;;;7.21;93.05;101133.36;105794;1273;25573;-61
2022/02/09 06:34:49;;;;;;;11.70;3.70;;;;;;;7.22;92.88;101135.00;105908;1273;25679;-60
2022/02/09 06:37:21;;;;;;;14.40;4.30;;;;;;;7.25;92.74;101142.70;105926;1273;24325;-61
2022/02/09 06:39:56;;;;;;;13.20;4.00;;;;;;;7.26;92.70;101145.19;105788;1273;25346;-59
2022/02/09 06:42:29;;;;;;;12.10;4.50;;;;;;;7.27;92.64;101145.02;105608;1273;22564;-59
2022/02/09 06:45:03;;;;;;;12.30;3.60;;;;;;;7.29;92.64;101146.80;105662;1273;25535;-59
2022/02/09 06:47:32;;;;;;;14.20;3.90;;;;;;;7.30;92.50;101145.73;105454;1273;25359;-58
2022/02/09 06:50:03;;;;;;;11.60;3.70;;;;;;;7.30;92.51;101151.51;109756;1273;22395;-58
2022/02/09 06:52:32;;;;;;;10.30;3.20;;;;;;;7.32;92.30;101150.77;105794;1273;22708;-59
2022/02/09 06:55:15;;;;;;;12.90;3.80;;;;;;;7.34;92.31;101149.45;105805;1273;22581;-59
2022/02/09 06:57:59;;;;;;;10.70;3.10;;;;;;;7.36;92.22;101145.84;105610;1273;22570;-59
2022/02/09 07:00:29;;;;;;;10.30;3.70;;;;;;;7.38;92.02;101147.69;105755;1273;24025;-60
2022/02/09 07:02:58;;;;;;;10.00;2.90;;;;;;;7.40;92.01;101153.85;105958;1273;22557;-57
2022/02/09 07:05:28;;;;;;;12.10;3.70;;;;;;;7.41;91.90;101155.63;105852;1273;22564;-59
2022/02/09 07:07:56;;;;;;;10.40;2.90;;;;;;;7.43;91.95;101154.56;105809;1273;22597;-59
2022/02/09 07:10:24;;;;;;;12.20;4.00;;;;;;;7.44;91.96;101157.23;105717;1273;24240;-58
2022/02/09 07:12:53;;;;;;;11.70;3.60;;;;;;;7.44;91.90;101161.98;105752;1273;25381;-59
2022/02/09 07:15:28;;;;;;;11.90;3.80;;;;;;;7.45;91.91;101158.23;105568;1273;25251;-58
2022/02/09 07:17:58;;;;;;;13.50;4.30;;;;;;;7.44;91.88;101158.41;105663;1273;24297;-58
2022/02/09 07:20:31;;;;;;;11.30;4.10;;;;;;;7.44;91.81;101159.92;105580;1273;23334;-59
2022/02/09 07:23:00;;;;;;;12.60;3.80;;;;;;;7.44;91.98;101155.46;105690;1273;24317;-57
2022/02/09 07:25:32;;;;;;;12.60;4.00;;;;;;;7.44;91.83;101155.70;105607;1273;22576;-58
2022/02/09 07:28:05;;;;;;;16.00;5.00;;;;;;;7.45;91.90;101150.75;105928;1274;24250;-58
2022/02/09 07:30:35;;;;;;;11.40;3.40;;;;;;;7.47;92.04;101152.48;105888;1273;22671;-59
2022/02/09 07:33:04;;;;;;;13.30;3.90;;;;;;;7.48;91.92;101153.80;105905;1273;24005;-59
2022/02/09 07:35:33;;;;;;;11.30;3.20;;;;;;;7.49;92.06;101151.45;105961;1273;25411;-59
2022/02/09 07:38:02;;;;;;;13.00;4.60;;;;;;;7.50;91.96;101152.70;106086;1273;26497;-59
2022/02/09 07:40:31;;;;;;;12.90;4.00;;;;;;;7.50;92.02;101148.00;106044;1273;25989;-60
2022/02/09 07:43:05;;;;;;;12.70;3.70;;;;;;;7.52;91.92;101146.94;105996;1273;22577;-59
2022/02/09 07:45:57;;;;;;;13.20;4.30;;;;;;;7.54;92.03;101143.79;105983;1273;23970;-59
2022/02/09 07:48:38;;;;;;;11.90;3.50;;;;;;;7.57;91.91;101144.67;105795;1273;22590;-57
2022/02/09 07:51:38;;;;;;;11.00;3.90;;;;;;;7.59;91.85;101142.61;105774;1273;25412;-58
2022/02/09 07:54:08;;;;;;;12.10;3.70;;;;;;;7.61;91.81;101140.34;105806;1273;22564;-58
2022/02/09 07:56:39;;;;;;;12.20;3.80;;;;;;;7.64;91.55;101132.23;105905;1273;22804;-59
2022/02/09 07:59:09;;;;;;;16.10;4.00;;;;;;;7.67;91.52;101132.09;105591;1273;25267;-60
2022/02/09 08:01:38;;;;;;;15.40;4.40;;;;;;;7.70;91.52;101132.48;105349;1273;25994;-60
2022/02/09 08:04:08;;;;;;;12.30;3.20;;;;;;;7.72;91.61;101134.96;105791;1273;23143;-60
2022/02/09 08:06:38;;;;;;;12.40;3.70;;;;;;;7.74;91.42;101134.84;105809;1273;22628;-59
2022/02/09 08:09:13;;;;;;;10.10;3.00;;;;;;;7.76;91.40;101138.34;106027;1273;24264;-61
2022/02/09 08:11:50;;;;;;;10.20;2.40;;;;;;;7.79;91.17;101140.17;105713;1273;24534;-61
2022/02/09 08:28:34;;;;;;;9.10;2.50;;;;;;;7.90;90.47;101134.20;105569;1276;22684;-59
2022/02/09 08:31:33;;;;;;;9.70;2.50;;;;;;;7.92;90.47;101128.54;105598;1276;22488;-59
2022/02/09 08:34:02;;;;;;;10.20;3.10;;;;;;;7.94;90.55;101119.51;105539;1276;22596;-59
2022/02/09 08:36:30;;;;;;;10.50;3.00;;;;;;;7.97;90.46;101119.27;105690;1276;22541;-60
2022/02/09 08:38:58;;;;;;;8.10;2.20;;;;;;;8.00;90.36;101122.25;105623;1276;24698;-59
2022/02/09 08:41:27;;;;;;;8.40;2.10;;;;;;;8.05;90.35;101124.12;105625;1276;25590;-59
2022/02/09 08:43:56;;;;;;;9.60;2.50;;;;;;;8.08;90.20;101122.98;105832;1276;26005;-60
2022/02/09 08:46:25;;;;;;;8.90;2.30;;;;;;;8.12;89.85;101120.83;105553;1276;22538;-60
2022/02/09 08:48:53;;;;;;;8.70;2.30;;;;;;;8.15;89.98;101116.90;105910;1276;24255;-60
2022/02/09 08:51:24;;;;;;;9.10;2.40;;;;;;;8.19;89.72;101117.02;105722;1276;25649;-59
2022/02/09 08:53:53;;;;;;;8.60;2.20;;;;;;;8.24;89.67;101116.42;105748;1276;22574;-60
2022/02/09 08:56:24;;;;;;;7.30;1.90;;;;;;;8.27;89.45;101115.79;105659;1276;25446;-59
2022/02/09 08:58:52;;;;;;;8.60;1.70;;;;;;;8.31;89.44;101114.71;105504;1276;25353;-59
2022/02/09 09:01:32;;;;;;;7.30;2.70;;;;;;;8.35;89.16;101113.01;105735;1276;22620;-59
2022/02/09 09:04:07;;;;;;;7.10;1.80;;;;;;;8.39;88.87;101113.92;106028;1273;23589;-60
2022/02/09 09:06:40;;;;;;;7.60;2.00;;;;;;;8.44;88.94;101112.67;105769;1273;25506;-60
2022/02/09 09:09:24;;;;;;;7.40;2.30;;;;;;;8.48;88.65;101115.40;105922;1273;22537;-58
2022/02/09 09:15:29;;;;;;;7.50;1.80;;;;;;;8.60;88.47;101112.73;105720;1273;22945;-60
2022/02/09 09:41:21;;;;;;;8.80;1.70;;;;;;;8.95;86.88;101101.17;104882;1281;24401;-59
2022/02/09 10:03:04;;;;;;;7.30;2.10;;;;;;;9.01;84.51;101114.20;104946;1276;22565;-58
2022/02/09 10:34:08;;;;;;;6.90;1.50;;;;;;;8.77;83.62;101125.14;105550;1274;22574;-60
2022/02/09 10:36:48;;;;;;;7.80;1.30;;;;;;;8.76;83.12;101119.38;105593;1273;22588;-60
2022/02/09 10:39:21;;;;;;;5.70;1.10;;;;;;;8.74;83.13;101119.05;105941;1273;22538;-60
2022/02/09 10:41:59;;;;;;;6.60;1.10;;;;;;;8.72;82.17;101117.82;105624;1273;22691;-59
2022/02/09 10:44:44;;;;;;;4.20;0.90;;;;;;;8.69;82.39;101119.42;105745;1273;24257;-60
2022/02/09 10:47:22;;;;;;;6.20;1.20;;;;;;;8.68;82.44;101115.35;105682;1273;22705;-62
2022/02/09 10:50:12;;;;;;;5.30;1.20;;;;;;;8.65;82.35;101113.36;105908;1273;22562;-59
2022/02/09 10:52:42;;;;;;;3.80;1.00;;;;;;;8.63;82.33;101114.05;106031;1273;26401;-60
2022/02/09 10:55:28;;;;;;;7.20;1.90;;;;;;;8.61;82.52;101111.02;105730;1273;23483;-60
2022/02/09 10:57:57;;;;;;;5.40;1.50;;;;;;;8.60;82.48;101114.30;105910;1273;22684;-57
2022/02/09 11:00:27;;;;;;;4.10;1.00;;;;;;;8.60;82.44;101118.28;105702;1273;25271;-59
2022/02/09 11:02:56;;;;;;;6.40;1.30;;;;;;;8.60;82.22;101116.64;105726;1273;22549;-59
2022/02/09 11:05:25;;;;;;;5.20;1.30;;;;;;;8.58;82.12;101107.61;105825;1273;22564;-58
2022/02/09 11:07:54;;;;;;;7.90;1.80;;;;;;;8.57;82.43;101104.86;105680;1273;22619;-59
2022/02/09 11:10:24;;;;;;;6.80;1.60;;;;;;;8.58;82.80;101104.98;105652;1273;22628;-59
2022/02/09 11:12:53;;;;;;;5.00;1.40;;;;;;;8.59;82.23;101110.94;105854;1273;23152;-59
2022/02/09 11:15:22;;;;;;;4.60;1.50;;;;;;;8.59;82.01;101109.80;105578;1273;24715;-60
2022/02/09 11:17:52;;;;;;;7.20;1.90;;;;;;;8.60;82.07;101103.10;105717;1273;24438;-62
2022/02/09 11:20:27;;;;;;;4.80;1.40;;;;;;;8.61;82.01;101107.92;105801;1273;22550;-59
2022/02/09 11:22:57;;;;;;;7.60;1.60;;;;;;;8.62;81.67;101108.46;105614;1273;22608;-59
2022/02/09 11:25:31;;;;;;;5.20;1.40;;;;;;;8.62;81.55;101111.16;105877;1273;22568;-59
2022/02/09 11:28:25;;;;;;;8.00;2.00;;;;;;;8.62;81.55;101107.19;105678;1273;22649;-59
2022/02/09 11:31:10;;;;;;;9.10;1.70;;;;;;;8.62;81.74;101103.04;105677;1273;23088;-61
2022/02/09 11:34:06;;;;;;;7.30;1.50;;;;;;;8.64;81.82;101106.47;105534;1273;25659;-59
2022/02/09 11:36:39;;;;;;;5.50;1.40;;;;;;;8.65;81.50;101106.52;105667;1273;23272;-59
2022/02/09 11:39:15;;;;;;;5.70;1.50;;;;;;;8.65;81.63;101106.51;105743;1273;24108;-59
2022/02/09 11:41:56;;;;;;;4.10;1.50;;;;;;;8.68;81.23;101101.35;105639;1273;22535;-59
2022/02/09 11:44:51;;;;;;;6.30;1.70;;;;;;;8.70;80.99;101097.92;105631;1273;22538;-59
2022/02/09 11:47:43;;;;;;;7.10;1.60;;;;;;;8.73;81.01;101099.83;105683;1273;22703;-58
2022/02/09 12:10:22;;;;;;;8.80;2.00;;;;;;;8.90;80.12;101088.61;105714;1273;24450;-60
2022/02/09 12:13:04;;;;;;;5.70;1.60;;;;;;;8.90;79.85;101089.56;105851;1273;22542;-59
2022/02/09 12:18:38;;;;;;;9.10;1.70;;;;;;;8.90;79.41;101076.45;105798;1273;22922;-60
2022/02/09 12:21:16;;;;;;;5.00;1.20;;;;;;;8.89;78.89;101080.44;105542;1273;22553;-59
2022/02/09 12:23:47;;;;;;;5.00;1.20;;;;;;;8.90;78.65;101081.53;106230;1271;25448;-60
2022/02/09 12:26:20;;;;;;;5.50;1.30;;;;;;;8.89;78.05;101085.08;105770;1273;23014;-59
2022/02/09 12:28:59;;;;;;;4.80;1.20;;;;;;;8.88;78.40;101085.56;105831;1273;25328;-58
2022/02/09 12:31:32;;;;;;;4.40;0.80;;;;;;;8.87;78.11;101086.17;105487;1273;22525;-60
2022/02/09 12:34:01;;;;;;;7.40;1.10;;;;;;;8.87;78.34;101080.94;105781;1273;22723;-59
2022/02/09 12:36:33;;;;;;;12.60;2.60;;;;;;;8.86;78.43;101080.95;105693;1273;22569;-58
2022/02/09 12:39:05;;;;;;;12.50;2.70;;;;;;;8.85;78.55;101077.25;105751;1272;22574;-59
2022/02/09 12:41:33;;;;;;;5.80;1.20;;;;;;;8.84;78.47;101079.02;105658;1273;22574;-61
2022/02/09 12:44:07;;;;;;;5.70;1.60;;;;;;;8.83;78.36;101080.81;105702;1273;22560;-60
2022/02/09 12:46:39;;;;;;;8.70;1.80;;;;;;;8.82;78.58;101080.36;105874;1273;22563;-59
2022/02/09 12:49:10;;;;;;;6.90;1.30;;;;;;;8.82;78.49;101084.11;105714;1273;22560;-58
2022/02/09 12:51:40;;;;;;;4.90;1.40;;;;;;;8.81;78.42;101087.33;105638;1273;26686;-59
2022/02/09 12:54:08;;;;;;;;;;;;;;;8.79;78.78;101084.42;105875;1273;24390;-59
2022/02/09 12:56:38;;;;;;;6.80;1.20;;;;;;;8.78;78.86;101084.48;105850;1273;24348;-59
2022/02/09 12:59:10;;;;;;;8.20;1.70;;;;;;;8.76;79.15;101086.84;105721;1273;22554;-57
2022/02/09 13:01:43;;;;;;;7.80;1.70;;;;;;;8.76;78.59;101089.25;105583;1273;22712;-60
2022/02/09 13:04:26;;;;;;;5.90;1.20;;;;;;;8.74;78.75;101088.65;105695;1273;22746;-59
2022/02/09 13:06:54;;;;;;;6.40;1.20;;;;;;;8.73;78.65;101087.48;105737;1273;22560;-63
2022/02/09 13:09:23;;;;;;;3.80;1.00;;;;;;;8.72;78.50;101085.79;105685;1273;24336;-58
2022/02/09 13:11:52;;;;;;;6.50;1.00;;;;;;;8.72;78.30;101084.13;105594;1273;22553;-59
2022/02/09 13:14:29;;;;;;;5.20;0.80;;;;;;;8.71;77.97;101078.50;105609;1273;22541;-59
2022/02/09 13:17:26;;;;;;;6.10;0.80;;;;;;;8.70;77.65;101081.08;105665;1273;24289;-61
2022/02/09 14:11:47;;;;;;;4.20;0.80;;;;;;;8.43;75.48;101043.05;105783;1273;22541;-59
2022/02/09 14:17:35;;;;;;;5.70;0.90;;;;;;;8.44;75.60;101040.77;105388;1276;25213;-57
2022/02/09 14:53:38;;;;;;;6.50;1.40;;;;;;;8.49;75.44;101031.19;105000;1282;25360;-60
2022/02/09 14:56:15;;;;;;;10.20;1.80;;;;;;;8.48;75.58;101031.38;104843;1282;22557;-59
2022/02/09 14:58:46;;;;;;;5.80;1.20;;;;;;;8.47;75.44;101025.20;104985;1282;25428;-59
2022/02/09 15:01:20;;;;;;;7.40;1.40;;;;;;;8.46;75.39;101023.09;104819;1282;22563;-59
2022/02/09 15:04:06;;;;;;;8.00;1.50;;;;;;;8.45;75.64;101027.71;105093;1282;22552;-60
2022/02/09 15:09:23;;;;;;;11.10;2.80;;;;;;;8.43;75.70;101025.87;104990;1282;25491;-59
2022/02/09 15:11:58;;;;;;;8.60;2.20;;;;;;;8.41;75.68;101028.87;105029;1282;24563;-58
2022/02/09 15:14:33;;;;;;;11.30;2.70;;;;;;;8.39;75.84;101025.22;104838;1282;22713;-61
2022/02/09 15:17:29;;;;;;;13.70;3.10;;;;;;;8.36;75.78;101019.89;105414;1279;22541;-59
2022/02/09 15:20:25;;;;;;;14.80;2.90;;;;;;;8.33;76.02;101020.88;105463;1276;22534;-59
2022/02/09 15:22:55;;;;;;;11.70;2.90;;;;;;;8.29;75.90;101020.75;105373;1276;24860;-59
2022/02/09 15:25:30;;;;;;;13.40;3.40;;;;;;;8.26;75.84;101019.17;105438;1276;22839;-59
2022/02/09 15:28:00;;;;;;;14.20;3.50;;;;;;;8.23;75.88;101016.23;107263;1274;25430;-58
2022/02/09 15:30:32;;;;;;;;;;;;;;;8.19;75.96;101014.13;105650;1273;22607;-58
2022/02/09 15:33:03;;;;;;;11.50;2.80;;;;;;;8.15;75.87;101012.90;105942;1273;24236;-58
2022/02/09 15:35:34;;;;;;;13.00;3.40;;;;;;;8.12;76.00;101018.64;105612;1273;22538;-58
2022/02/09 15:38:08;;;;;;;10.60;3.20;;;;;;;8.09;76.11;101022.21;107495;1273;25332;-60
2022/02/09 15:40:48;;;;;;;11.50;3.30;;;;;;;8.07;75.83;101016.38;105635;1273;23091;-58
2022/02/09 15:43:43;;;;;;;13.00;3.90;;;;;;;8.06;76.10;101020.16;105851;1273;25134;-59
2022/02/09 15:58:01;;;;;;;12.70;3.50;;;;;;;7.95;76.23;101009.76;105709;1273;26008;-59
2022/02/09 16:06:16;;;;;;;12.40;3.90;;;;;;;7.89;76.48;101017.18;105845;1273;25676;-59
2022/02/09 16:22:54;;;;;;;14.10;3.60;;;;;;;7.75;76.68;101019.98;105283;1281;24046;-59
2022/02/09 16:25:36;;;;;;;14.60;3.50;;;;;;;7.73;76.77;101025.11;105090;1281;25336;-61
2022/02/09 16:34:02;;;;;;;11.70;3.20;;;;;;;7.64;76.85;101023.23;105011;1281;24280;-56
2022/02/09 16:44:59;;;;;;;13.60;3.40;;;;;;;7.54;77.02;101032.65;104571;1285;24355;-59
2022/02/09 16:47:46;;;;;;;10.30;3.40;;;;;;;7.50;76.90;101033.15;104869;1285;40511;-59
2022/02/09 16:50:17;;;;;;;11.90;3.10;;;;;;;7.47;77.04;101033.46;104492;1284;25478;-58
2022/02/09 16:52:52;;;;;;;11.60;3.00;;;;;;;7.46;76.93;101035.33;104839;1282;25514;-58
2022/02/09 16:55:50;;;;;;;12.50;3.60;;;;;;;7.44;77.09;101039.35;104939;1282;22580;-58
2022/02/09 17:20:33;;;;;;;17.30;6.40;;;;;;;7.31;77.57;101033.82;105390;1273;22809;-62
2022/02/09 17:23:02;;;;;;;17.40;6.30;;;;;;;7.30;77.73;101033.13;106057;1273;23938;-60
2022/02/09 17:25:31;;;;;;;17.70;6.10;;;;;;;7.28;77.76;101033.50;106205;1273;24377;-59
2022/02/09 17:28:00;;;;;;;17.30;5.80;;;;;;;7.26;77.79;101034.25;105818;1272;22546;-60
2022/02/09 17:33:34;;;;;;;17.50;5.20;;;;;;;7.24;78.01;101028.36;105646;1278;24433;-61
2022/02/09 17:36:11;;;;;;;15.80;4.90;;;;;;;7.22;77.88;101026.60;105310;1279;24993;-60
2022/02/09 17:38:47;;;;;;;17.10;5.30;;;;;;;7.21;77.85;101032.89;105416;1276;22544;-60
2022/02/09 17:58:05;;;;;;;18.10;5.50;;;;;;;7.17;78.12;101030.87;105224;1277;22662;-60
2022/02/09 18:00:33;;;;;;;16.10;5.80;;;;;;;7.16;78.29;101027.33;105229;1278;22740;-59
2022/02/09 18:03:03;;;;;;;16.30;5.90;;;;;;;7.15;78.32;101028.85;104983;1276;22553;-59
2022/02/09 18:05:43;;;;;;;19.30;6.80;;;;;;;7.13;78.31;101024.39;105415;1276;25478;-60
2022/02/09 18:08:19;;;;;;;16.50;6.20;;;;;;;7.13;78.17;101033.51;105292;1277;22721;-60
2022/02/09 18:10:58;;;;;;;17.70;5.90;;;;;;;7.13;78.29;101029.55;105414;1273;22568;-59
2022/02/09 18:30:20;;;;;;;21.00;7.10;;;;;;;7.08;78.26;101025.06;105321;1279;24707;-59
2022/02/09 18:33:10;;;;;;;19.50;7.20;;;;;;;7.08;78.20;101027.92;105333;1279;23939;-60
2022/02/09 18:44:06;;;;;;;20.00;6.60;;;;;;;7.00;78.12;101024.87;105421;1278;23077;-58
2022/02/09 18:46:43;;;;;;;20.50;6.20;;;;;;;7.00;78.20;101024.56;105339;1279;22586;-61
2022/02/09 19:03:29;;;;;;;19.50;5.40;;;;;;;7.00;78.07;101023.84;104827;1276;26664;-60
2022/02/09 19:06:03;;;;;;;15.60;4.90;;;;;;;7.00;78.16;101024.64;104839;1276;25505;-60
2022/02/09 19:08:51;;;;;;;19.30;5.60;;;;;;;6.99;78.12;101027.05;109169;1276;22425;-60
2022/02/09 19:14:15;;;;;;;18.50;5.10;;;;;;;6.99;78.09;101026.09;108830;1280;22472;-60
2022/02/09 19:16:53;;;;;;;18.40;4.80;;;;;;;7.00;78.05;101026.15;108804;1280;22420;-60
2022/02/09 19:30:41;;;;;;;17.50;5.40;;;;;;;7.06;77.78;101027.27;109115;1276;22474;-60
2022/02/09 19:33:31;;;;;;;18.50;5.10;;;;;;;7.07;77.82;101018.28;109090;1276;23353;-59
2022/02/09 19:47:25;;;;;;;16.70;5.00;;;;;;;7.08;77.55;101007.16;109203;1276;22389;-60
2022/02/09 19:55:35;;;;;;;17.30;5.10;;;;;;;7.08;77.51;100999.61;105764;1271;22538;-59
2022/02/09 19:58:05;;;;;;;18.60;5.30;;;;;;;7.07;77.43;101004.08;105548;1273;22632;-58
2022/02/09 20:00:37;;;;;;;18.00;5.40;;;;;;;7.07;77.56;101003.69;105891;1273;24235;-61
2022/02/09 20:03:08;;;;;;;19.70;5.60;;;;;;;7.07;77.52;101010.91;105686;1273;23144;-56
2022/02/09 20:05:37;;;;;;;18.90;5.80;;;;;;;7.07;77.34;101012.82;105713;1274;24228;-55
2022/02/09 20:08:07;;;;;;;21.70;6.60;;;;;;;7.05;77.48;101012.94;105655;1273;25279;-59
2022/02/09 20:10:36;;;;;;;20.00;6.70;;;;;;;7.05;77.37;101013.49;106027;1274;24275;-59
2022/02/09 20:13:04;;;;;;;23.00;6.00;;;;;;;7.03;77.36;101018.23;106147;1274;22764;-61
2022/02/09 20:15:34;;;;;;;17.30;6.00;;;;;;;7.02;77.38;101019.59;106283;1273;24246;-59
2022/02/09 20:18:02;;;;;;;21.20;5.90;;;;;;;7.01;77.14;101019.77;105960;1275;22583;-57
2022/02/09 20:20:34;;;;;;;18.80;6.50;;;;;;;7.00;77.22;101017.73;105911;1273;22593;-58
2022/02/09 20:23:02;;;;;;;19.10;6.50;;;;;;;7.01;77.12;101017.10;106205;1273;25442;-56
2022/02/09 20:25:32;;;;;;;21.10;6.90;;;;;;;7.01;77.09;101021.85;105899;1274;23277;-60
2022/02/09 20:28:01;;;;;;;18.10;5.80;;;;;;;7.01;76.92;101015.66;106046;1273;22562;-59
2022/02/09 20:30:36;;;;;;;17.50;5.80;;;;;;;7.02;77.07;101019.27;105961;1274;22807;-59
2022/02/09 20:33:09;;;;;;;21.00;6.50;;;;;;;7.02;76.96;101021.49;106142;1273;25384;-60
2022/02/09 20:35:38;;;;;;;24.60;5.50;;;;;;;7.02;76.80;101022.29;105927;1273;25085;-58
2022/02/09 20:38:11;;;;;;;18.90;6.10;;;;;;;7.03;76.76;101016.02;105928;1274;25321;-57
2022/02/09 20:40:48;;;;;;;19.90;5.40;;;;;;;7.04;76.82;101014.53;105694;1274;22572;-59
2022/02/09 20:43:20;;;;;;;16.90;4.80;;;;;;;7.04;76.64;101017.31;105791;1274;22559;-58
2022/02/09 20:45:51;;;;;;;18.00;4.70;;;;;;;7.05;76.47;101011.90;105997;1274;25428;-63
2022/02/09 20:48:24;;;;;;;16.50;5.00;;;;;;;7.07;76.48;101013.36;105583;1273;22553;-62
2022/02/09 20:50:54;;;;;;;16.50;5.10;;;;;;;7.07;76.42;101018.50;105724;1274;22538;-62
2022/02/09 20:53:24;;;;;;;18.80;5.20;;;;;;;7.09;76.35;101015.54;106086;1273;25280;-59
2022/02/09 20:55:53;;;;;;;19.00;6.20;;;;;;;7.09;76.35;101012.35;105691;1273;24233;-60